sensor_id;sensor_type;location;lat;lon;timestamp;pressure;altitude;pressure_sealevel;temperature;humidity
75998;BME280;64685;48.762;44.822;2023-05-07T00:04:17;101562.34;;;13.62;57.11
75998;BME280;64685;48.762;44.822;2023-05-07T00:09:20;101561.13;;;13.54;56.61
75998;BME280;64685;48.762;44.822;2023-05-07T00:14:22;101565.41;;;13.52;56.63
75998;BME280;64685;48.762;44.822;2023-05-07T00:19:25;101566.53;;;13.42;57.20
75998;BME280;64685;48.762;44.822;2023-05-07T00:24:28;101577.53;;;13.38;57.00
75998;BME280;64685;48.762;44.822;2023-05-07T00:29:30;101578.19;;;13.36;57.13
75998;BME280;64685;48.762;44.822;2023-05-07T00:34:33;101576.53;;;13.35;57.10
75998;BME280;64685;48.762;44.822;2023-05-07T00:39:35;101574.84;;;13.25;57.78
75998;BME280;64685;48.762;44.822;2023-05-07T00:44:38;101581.38;;;13.21;57.81
75998;BME280;64685;48.762;44.822;2023-05-07T00:49:44;101580.03;;;13.18;57.73
75998;BME280;64685;48.762;44.822;2023-05-07T00:54:47;101575.59;;;13.17;57.31
75998;BME280;64685;48.762;44.822;2023-05-07T00:59:51;101568.44;;;13.11;57.34
75998;BME280;64685;48.762;44.822;2023-05-07T01:04:55;101581.97;;;13.09;57.09
75998;BME280;64685;48.762;44.822;2023-05-07T01:09:58;101585.41;;;13.06;57.14
75998;BME280;64685;48.762;44.822;2023-05-07T01:15:02;101583.31;;;13.12;57.32
75998;BME280;64685;48.762;44.822;2023-05-07T01:20:07;101586.06;;;13.03;57.39
75998;BME280;64685;48.762;44.822;2023-05-07T01:25:11;101590.13;;;12.97;57.92
75998;BME280;64685;48.762;44.822;2023-05-07T01:30:19;101597.47;;;12.93;58.47
75998;BME280;64685;48.762;44.822;2023-05-07T01:35:24;101598.09;;;12.90;58.50
75998;BME280;64685;48.762;44.822;2023-05-07T01:40:27;101598.97;;;12.77;59.03
75998;BME280;64685;48.762;44.822;2023-05-07T01:45:30;101600.44;;;12.75;59.32
75998;BME280;64685;48.762;44.822;2023-05-07T01:50:34;101597.75;;;12.70;59.97
75998;BME280;64685;48.762;44.822;2023-05-07T01:55:37;101604.09;;;12.75;60.12
75998;BME280;64685;48.762;44.822;2023-05-07T02:00:40;101606.25;;;12.78;60.37
75998;BME280;64685;48.762;44.822;2023-05-07T02:05:43;101616.84;;;12.81;60.73
75998;BME280;64685;48.762;44.822;2023-05-07T02:10:56;101629.97;;;12.94;60.65
75998;BME280;64685;48.762;44.822;2023-05-07T02:16:00;101634.66;;;12.85;61.09
75998;BME280;64685;48.762;44.822;2023-05-07T02:21:03;101624.78;;;12.88;61.16
75998;BME280;64685;48.762;44.822;2023-05-07T02:26:06;101619.63;;;12.81;61.39
75998;BME280;64685;48.762;44.822;2023-05-07T02:31:09;101639.06;;;12.78;61.63
75998;BME280;64685;48.762;44.822;2023-05-07T02:36:13;101644.47;;;12.74;61.64
75998;BME280;64685;48.762;44.822;2023-05-07T02:41:22;101662.31;;;12.78;62.14
75998;BME280;64685;48.762;44.822;2023-05-07T02:46:24;101667.56;;;12.93;61.69
75998;BME280;64685;48.762;44.822;2023-05-07T02:51:34;101688.34;;;12.92;61.48
75998;BME280;64685;48.762;44.822;2023-05-07T02:56:41;101691.38;;;12.82;61.65
75998;BME280;64685;48.762;44.822;2023-05-07T03:01:43;101700.72;;;12.91;61.05
75998;BME280;64685;48.762;44.822;2023-05-07T03:06:47;101684.50;;;13.02;60.46
75998;BME280;64685;48.762;44.822;2023-05-07T03:11:50;101698.31;;;13.12;59.99
75998;BME280;64685;48.762;44.822;2023-05-07T03:16:53;101698.81;;;13.14;59.92
75998;BME280;64685;48.762;44.822;2023-05-07T03:21:56;101719.41;;;13.09;60.03
75998;BME280;64685;48.762;44.822;2023-05-07T03:26:58;101725.78;;;13.23;59.21
75998;BME280;64685;48.762;44.822;2023-05-07T03:32:01;101714.34;;;13.33;59.44
75998;BME280;64685;48.762;44.822;2023-05-07T03:37:04;101709.63;;;13.42;59.28
75998;BME280;64685;48.762;44.822;2023-05-07T03:42:06;101710.25;;;13.39;58.79
75998;BME280;64685;48.762;44.822;2023-05-07T03:47:09;101725.13;;;13.62;58.33
75998;BME280;64685;48.762;44.822;2023-05-07T03:52:13;101730.81;;;13.70;58.30
75998;BME280;64685;48.762;44.822;2023-05-07T03:57:17;101737.06;;;13.89;58.09
75998;BME280;64685;48.762;44.822;2023-05-07T04:02:19;101740.34;;;13.91;58.32
75998;BME280;64685;48.762;44.822;2023-05-07T04:07:22;101744.19;;;13.73;58.11
75998;BME280;64685;48.762;44.822;2023-05-07T04:12:25;101748.41;;;13.84;58.00
75998;BME280;64685;48.762;44.822;2023-05-07T04:17:28;101759.41;;;13.94;57.98
75998;BME280;64685;48.762;44.822;2023-05-07T04:22:31;101759.41;;;13.94;57.82
75998;BME280;64685;48.762;44.822;2023-05-07T04:27:33;101765.75;;;13.86;57.38
75998;BME280;64685;48.762;44.822;2023-05-07T04:32:37;101767.81;;;13.72;57.02
75998;BME280;64685;48.762;44.822;2023-05-07T04:37:41;101781.81;;;13.85;56.87
75998;BME280;64685;48.762;44.822;2023-05-07T04:42:44;101775.22;;;13.90;56.61
75998;BME280;64685;48.762;44.822;2023-05-07T04:47:47;101769.72;;;14.07;55.92
75998;BME280;64685;48.762;44.822;2023-05-07T04:52:50;101781.22;;;13.97;55.37
75998;BME280;64685;48.762;44.822;2023-05-07T04:57:53;101763.22;;;13.98;55.15
75998;BME280;64685;48.762;44.822;2023-05-07T05:02:58;101764.56;;;14.00;55.16
75998;BME280;64685;48.762;44.822;2023-05-07T05:08:01;101772.34;;;13.81;54.45
75998;BME280;64685;48.762;44.822;2023-05-07T05:13:04;101775.16;;;14.03;53.66
75998;BME280;64685;48.762;44.822;2023-05-07T05:18:07;101768.66;;;14.47;53.04
75998;BME280;64685;48.762;44.822;2023-05-07T05:23:10;101769.81;;;14.46;53.18
75998;BME280;64685;48.762;44.822;2023-05-07T05:28:12;101770.91;;;14.36;52.69
75998;BME280;64685;48.762;44.822;2023-05-07T05:33:15;101776.09;;;14.43;52.19
75998;BME280;64685;48.762;44.822;2023-05-07T05:38:18;101767.72;;;14.99;52.06
75998;BME280;64685;48.762;44.822;2023-05-07T05:43:21;101754.22;;;15.35;51.52
75998;BME280;64685;48.762;44.822;2023-05-07T05:48:23;101759.34;;;16.01;50.02
75998;BME280;64685;48.762;44.822;2023-05-07T05:53:26;101748.25;;;15.96;49.75
75998;BME280;64685;48.762;44.822;2023-05-07T05:58:29;101743.41;;;16.05;48.96
75998;BME280;64685;48.762;44.822;2023-05-07T06:03:35;101745.28;;;15.92;46.96
75998;BME280;64685;48.762;44.822;2023-05-07T06:08:45;101756.41;;;16.89;45.26
75998;BME280;64685;48.762;44.822;2023-05-07T06:13:53;101760.53;;;16.92;44.95
75998;BME280;64685;48.762;44.822;2023-05-07T06:18:56;101772.19;;;17.69;44.06
75998;BME280;64685;48.762;44.822;2023-05-07T06:23:58;101779.22;;;17.05;43.77
75998;BME280;64685;48.762;44.822;2023-05-07T06:29:01;101782.94;;;16.97;44.13
75998;BME280;64685;48.762;44.822;2023-05-07T06:34:04;101782.09;;;17.75;43.28
75998;BME280;64685;48.762;44.822;2023-05-07T06:39:12;101802.03;;;18.31;41.83
75998;BME280;64685;48.762;44.822;2023-05-07T06:44:15;101785.19;;;20.61;38.80
75998;BME280;64685;48.762;44.822;2023-05-07T06:49:22;101801.97;;;20.82;36.33
75998;BME280;64685;48.762;44.822;2023-05-07T06:54:24;101796.56;;;22.08;35.52
75998;BME280;64685;48.762;44.822;2023-05-07T06:59:27;101802.00;;;22.35;33.78
75998;BME280;64685;48.762;44.822;2023-05-07T07:04:30;101794.16;;;23.38;32.74
75998;BME280;64685;48.762;44.822;2023-05-07T07:09:38;101790.47;;;23.37;31.11
75998;BME280;64685;48.762;44.822;2023-05-07T07:14:42;101795.84;;;23.42;30.96
75998;BME280;64685;48.762;44.822;2023-05-07T07:19:45;101772.22;;;22.71;31.75
75998;BME280;64685;48.762;44.822;2023-05-07T07:24:47;101783.78;;;22.40;31.87
75998;BME280;64685;48.762;44.822;2023-05-07T07:34:55;101774.34;;;23.00;31.46
75998;BME280;64685;48.762;44.822;2023-05-07T07:39:57;101749.66;;;23.07;30.23
75998;BME280;64685;48.762;44.822;2023-05-07T07:45:00;101761.63;;;22.49;30.39
75998;BME280;64685;48.762;44.822;2023-05-07T07:50:07;101776.25;;;23.15;29.40
75998;BME280;64685;48.762;44.822;2023-05-07T07:55:11;101726.63;;;24.37;28.61
75998;BME280;64685;48.762;44.822;2023-05-07T08:00:15;101738.13;;;22.14;30.55
75998;BME280;64685;48.762;44.822;2023-05-07T08:05:18;101759.25;;;22.99;30.35
75998;BME280;64685;48.762;44.822;2023-05-07T08:10:23;101744.69;;;24.12;28.27
75998;BME280;64685;48.762;44.822;2023-05-07T08:15:32;101776.81;;;23.01;29.27
75998;BME280;64685;48.762;44.822;2023-05-07T08:20:35;101769.66;;;23.89;28.95
75998;BME280;64685;48.762;44.822;2023-05-07T08:25:45;101794.72;;;22.57;30.00
75998;BME280;64685;48.762;44.822;2023-05-07T08:30:48;101783.00;;;22.01;31.32
75998;BME280;64685;48.762;44.822;2023-05-07T08:35:52;101793.06;;;22.56;31.61
75998;BME280;64685;48.762;44.822;2023-05-07T08:40:54;101788.91;;;21.24;32.73
75998;BME280;64685;48.762;44.822;2023-05-07T08:46:00;101772.47;;;21.33;32.90
75998;BME280;64685;48.762;44.822;2023-05-07T08:51:12;101781.19;;;21.59;32.50
75998;BME280;64685;48.762;44.822;2023-05-07T08:56:17;101799.38;;;21.54;32.51
75998;BME280;64685;48.762;44.822;2023-05-07T09:01:24;101794.75;;;21.81;32.87
75998;BME280;64685;48.762;44.822;2023-05-07T09:06:29;101800.38;;;20.10;34.33
75998;BME280;64685;48.762;44.822;2023-05-07T09:11:32;101788.13;;;20.49;33.87
75998;BME280;64685;48.762;44.822;2023-05-07T09:16:36;101778.81;;;20.80;32.87
75998;BME280;64685;48.762;44.822;2023-05-07T09:21:39;101767.03;;;20.93;32.34
75998;BME280;64685;48.762;44.822;2023-05-07T09:26:44;101766.34;;;20.84;32.68
75998;BME280;64685;48.762;44.822;2023-05-07T09:31:49;101759.56;;;20.73;32.85
75998;BME280;64685;48.762;44.822;2023-05-07T09:36:53;101758.72;;;20.42;34.04
75998;BME280;64685;48.762;44.822;2023-05-07T09:41:56;101766.09;;;20.03;34.65
75998;BME280;64685;48.762;44.822;2023-05-07T09:47:08;101760.44;;;19.64;34.90
75998;BME280;64685;48.762;44.822;2023-05-07T09:52:17;101753.97;;;19.63;35.90
75998;BME280;64685;48.762;44.822;2023-05-07T09:57:24;101751.19;;;19.79;35.35
75998;BME280;64685;48.762;44.822;2023-05-07T10:02:35;101748.00;;;19.29;35.67
75998;BME280;64685;48.762;44.822;2023-05-07T10:07:40;101743.28;;;18.97;35.64
75998;BME280;64685;48.762;44.822;2023-05-07T10:12:44;101757.78;;;18.83;36.04
75998;BME280;64685;48.762;44.822;2023-05-07T10:17:54;101764.28;;;18.84;36.23
75998;BME280;64685;48.762;44.822;2023-05-07T10:22:58;101760.50;;;18.80;36.49
75998;BME280;64685;48.762;44.822;2023-05-07T10:28:10;101754.28;;;18.86;36.61
75998;BME280;64685;48.762;44.822;2023-05-07T10:33:19;101761.47;;;18.72;36.20
75998;BME280;64685;48.762;44.822;2023-05-07T10:38:27;101755.31;;;18.25;36.83
75998;BME280;64685;48.762;44.822;2023-05-07T10:43:40;101765.63;;;18.09;37.65
75998;BME280;64685;48.762;44.822;2023-05-07T10:59:30;101773.97;;;17.53;39.13
75998;BME280;64685;48.762;44.822;2023-05-07T11:05:18;101770.38;;;17.44;39.58
75998;BME280;64685;48.762;44.822;2023-05-07T11:10:23;101767.16;;;17.25;39.58
75998;BME280;64685;48.762;44.822;2023-05-07T11:15:54;101755.72;;;17.21;39.68
75998;BME280;64685;48.762;44.822;2023-05-07T11:21:06;101751.34;;;17.03;40.07
75998;BME280;64685;48.762;44.822;2023-05-07T11:26:17;101740.44;;;17.22;40.18
75998;BME280;64685;48.762;44.822;2023-05-07T11:31:27;101752.00;;;17.29;39.38
75998;BME280;64685;48.762;44.822;2023-05-07T11:36:34;101729.97;;;17.43;39.41
75998;BME280;64685;48.762;44.822;2023-05-07T11:41:39;101744.53;;;17.54;39.00
75998;BME280;64685;48.762;44.822;2023-05-07T11:46:45;101729.03;;;17.39;39.26
75998;BME280;64685;48.762;44.822;2023-05-07T11:51:48;101733.84;;;17.39;39.46
75998;BME280;64685;48.762;44.822;2023-05-07T11:56:50;101738.63;;;17.47;39.73
75998;BME280;64685;48.762;44.822;2023-05-07T12:01:56;101728.75;;;17.32;39.80
75998;BME280;64685;48.762;44.822;2023-05-07T12:07:00;101728.03;;;17.15;39.42
75998;BME280;64685;48.762;44.822;2023-05-07T12:12:04;101728.50;;;17.17;39.80
75998;BME280;64685;48.762;44.822;2023-05-07T12:17:12;101722.84;;;17.17;39.43
75998;BME280;64685;48.762;44.822;2023-05-07T12:22:15;101715.03;;;17.22;39.83
75998;BME280;64685;48.762;44.822;2023-05-07T12:27:18;101726.84;;;17.16;39.94
75998;BME280;64685;48.762;44.822;2023-05-07T12:32:21;101735.75;;;16.97;40.65
75998;BME280;64685;48.762;44.822;2023-05-07T12:37:25;101733.13;;;16.92;41.61
75998;BME280;64685;48.762;44.822;2023-05-07T12:42:39;101729.03;;;16.81;42.58
75998;BME280;64685;48.762;44.822;2023-05-07T12:47:45;101735.94;;;16.63;42.16
75998;BME280;64685;48.762;44.822;2023-05-07T12:52:48;101739.97;;;16.54;42.77
75998;BME280;64685;48.762;44.822;2023-05-07T12:57:52;101750.28;;;16.33;44.14
75998;BME280;64685;48.762;44.822;2023-05-07T13:02:55;101756.97;;;16.20;44.68
75998;BME280;64685;48.762;44.822;2023-05-07T13:07:58;101755.31;;;16.19;46.23
75998;BME280;64685;48.762;44.822;2023-05-07T13:13:01;101758.50;;;16.00;47.71
75998;BME280;64685;48.762;44.822;2023-05-07T13:18:03;101766.97;;;15.75;48.25
75998;BME280;64685;48.762;44.822;2023-05-07T13:23:06;101773.78;;;15.57;49.40
75998;BME280;64685;48.762;44.822;2023-05-07T13:28:09;101777.41;;;15.40;50.59
75998;BME280;64685;48.762;44.822;2023-05-07T13:33:12;101764.31;;;15.36;51.27
75998;BME280;64685;48.762;44.822;2023-05-07T13:38:15;101772.09;;;15.30;53.16
75998;BME280;64685;48.762;44.822;2023-05-07T13:43:18;101770.38;;;15.12;53.95
75998;BME280;64685;48.762;44.822;2023-05-07T13:48:22;101764.69;;;14.95;53.99
75998;BME280;64685;48.762;44.822;2023-05-07T13:53:24;101758.69;;;14.80;54.64
75998;BME280;64685;48.762;44.822;2023-05-07T13:58:27;101761.72;;;14.53;55.24
75998;BME280;64685;48.762;44.822;2023-05-07T14:03:29;101748.13;;;14.38;55.73
75998;BME280;64685;48.762;44.822;2023-05-07T14:08:34;101758.34;;;14.34;56.34
75998;BME280;64685;48.762;44.822;2023-05-07T14:13:36;101755.84;;;14.32;57.41
75998;BME280;64685;48.762;44.822;2023-05-07T14:18:39;101757.72;;;14.15;58.11
75998;BME280;64685;48.762;44.822;2023-05-07T14:23:42;101758.59;;;14.02;58.66
75998;BME280;64685;48.762;44.822;2023-05-07T14:28:44;101761.47;;;13.88;59.12
75998;BME280;64685;48.762;44.822;2023-05-07T14:33:48;101769.47;;;13.73;59.43
75998;BME280;64685;48.762;44.822;2023-05-07T14:38:53;101770.56;;;13.63;60.21
75998;BME280;64685;48.762;44.822;2023-05-07T14:44:01;101776.84;;;13.47;60.88
75998;BME280;64685;48.762;44.822;2023-05-07T14:49:06;101784.25;;;13.43;61.11
75998;BME280;64685;48.762;44.822;2023-05-07T14:54:09;101782.38;;;13.38;61.84
75998;BME280;64685;48.762;44.822;2023-05-07T14:59:11;101774.91;;;13.34;62.01
75998;BME280;64685;48.762;44.822;2023-05-07T15:04:15;101780.44;;;13.26;61.96
75998;BME280;64685;48.762;44.822;2023-05-07T15:09:18;101789.59;;;13.31;62.32
75998;BME280;64685;48.762;44.822;2023-05-07T15:14:20;101799.97;;;13.31;62.73
75998;BME280;64685;48.762;44.822;2023-05-07T15:19:24;101792.81;;;13.25;63.19
75998;BME280;64685;48.762;44.822;2023-05-07T15:24:31;101799.56;;;13.24;63.69
75998;BME280;64685;48.762;44.822;2023-05-07T15:29:34;101790.03;;;13.11;64.20
75998;BME280;64685;48.762;44.822;2023-05-07T15:34:37;101799.50;;;13.02;64.62
75998;BME280;64685;48.762;44.822;2023-05-07T15:39:40;101795.84;;;13.01;64.75
75998;BME280;64685;48.762;44.822;2023-05-07T15:44:42;101792.34;;;12.96;65.15
75998;BME280;64685;48.762;44.822;2023-05-07T15:49:45;101781.19;;;12.77;65.21
75998;BME280;64685;48.762;44.822;2023-05-07T15:54:47;101778.78;;;12.71;64.83
75998;BME280;64685;48.762;44.822;2023-05-07T15:59:50;101793.03;;;12.74;64.77
75998;BME280;64685;48.762;44.822;2023-05-07T16:04:53;101810.78;;;12.70;65.12
75998;BME280;64685;48.762;44.822;2023-05-07T16:09:55;101829.22;;;12.44;65.76
75998;BME280;64685;48.762;44.822;2023-05-07T16:14:58;101838.41;;;12.31;66.61
75998;BME280;64685;48.762;44.822;2023-05-07T16:20:02;101861.09;;;12.16;66.86
75998;BME280;64685;48.762;44.822;2023-05-07T16:25:09;101867.69;;;12.06;67.71
75998;BME280;64685;48.762;44.822;2023-05-07T16:30:12;101868.16;;;11.95;67.56
75998;BME280;64685;48.762;44.822;2023-05-07T16:35:15;101857.63;;;12.05;68.68
75998;BME280;64685;48.762;44.822;2023-05-07T16:40:18;101849.31;;;12.00;68.71
75998;BME280;64685;48.762;44.822;2023-05-07T16:45:21;101841.81;;;11.96;69.45
75998;BME280;64685;48.762;44.822;2023-05-07T16:50:24;101814.63;;;11.83;69.20
75998;BME280;64685;48.762;44.822;2023-05-07T16:55:27;101806.81;;;11.80;69.20
75998;BME280;64685;48.762;44.822;2023-05-07T17:00:31;101787.78;;;11.82;69.46
75998;BME280;64685;48.762;44.822;2023-05-07T17:05:51;101784.28;;;11.71;69.49
75998;BME280;64685;48.762;44.822;2023-05-07T17:10:54;101792.25;;;11.64;69.69
75998;BME280;64685;48.762;44.822;2023-05-07T17:15:57;101804.03;;;11.61;69.99
75998;BME280;64685;48.762;44.822;2023-05-07T17:21:00;101811.84;;;11.64;69.44
75998;BME280;64685;48.762;44.822;2023-05-07T17:26:02;101817.44;;;11.64;69.62
75998;BME280;64685;48.762;44.822;2023-05-07T17:31:05;101826.50;;;11.56;68.77
75998;BME280;64685;48.762;44.822;2023-05-07T17:36:08;101826.34;;;11.48;68.99
75998;BME280;64685;48.762;44.822;2023-05-07T17:41:10;101830.56;;;11.45;69.09
75998;BME280;64685;48.762;44.822;2023-05-07T17:46:13;101839.78;;;11.46;68.89
75998;BME280;64685;48.762;44.822;2023-05-07T17:51:15;101844.28;;;11.42;68.30
75998;BME280;64685;48.762;44.822;2023-05-07T17:56:18;101840.16;;;11.39;69.39
75998;BME280;64685;48.762;44.822;2023-05-07T18:01:20;101831.16;;;11.42;69.57
75998;BME280;64685;48.762;44.822;2023-05-07T18:06:23;101825.78;;;11.46;69.12
75998;BME280;64685;48.762;44.822;2023-05-07T18:11:27;101825.28;;;11.44;69.10
75998;BME280;64685;48.762;44.822;2023-05-07T18:16:30;101812.88;;;11.50;68.57
75998;BME280;64685;48.762;44.822;2023-05-07T18:21:32;101811.06;;;11.59;68.40
75998;BME280;64685;48.762;44.822;2023-05-07T18:26:35;101801.16;;;11.66;68.30
75998;BME280;64685;48.762;44.822;2023-05-07T18:31:37;101790.59;;;11.63;68.36
75998;BME280;64685;48.762;44.822;2023-05-07T18:36:40;101790.50;;;11.68;67.78
75998;BME280;64685;48.762;44.822;2023-05-07T18:41:43;101774.25;;;11.70;67.66
75998;BME280;64685;48.762;44.822;2023-05-07T18:46:46;101770.09;;;11.68;66.51
75998;BME280;64685;48.762;44.822;2023-05-07T18:51:50;101766.13;;;11.69;66.54
75998;BME280;64685;48.762;44.822;2023-05-07T18:56:54;101769.69;;;11.74;67.04
75998;BME280;64685;48.762;44.822;2023-05-07T19:01:57;101762.19;;;11.70;66.51
75998;BME280;64685;48.762;44.822;2023-05-07T19:06:59;101762.13;;;11.75;65.97
75998;BME280;64685;48.762;44.822;2023-05-07T19:12:02;101769.16;;;11.72;65.90
75998;BME280;64685;48.762;44.822;2023-05-07T19:17:05;101767.41;;;11.76;66.00
75998;BME280;64685;48.762;44.822;2023-05-07T19:22:07;101767.13;;;11.78;65.83
75998;BME280;64685;48.762;44.822;2023-05-07T19:27:10;101769.06;;;11.77;65.94
75998;BME280;64685;48.762;44.822;2023-05-07T19:32:12;101773.38;;;11.88;66.29
75998;BME280;64685;48.762;44.822;2023-05-07T19:37:15;101764.97;;;11.88;65.84
75998;BME280;64685;48.762;44.822;2023-05-07T19:42:17;101771.91;;;11.91;65.98
75998;BME280;64685;48.762;44.822;2023-05-07T19:47:20;101775.88;;;11.90;66.23
75998;BME280;64685;48.762;44.822;2023-05-07T19:52:22;101769.66;;;11.93;65.90
75998;BME280;64685;48.762;44.822;2023-05-07T19:57:25;101770.31;;;12.03;65.33
75998;BME280;64685;48.762;44.822;2023-05-07T20:02:27;101773.13;;;12.03;65.96
75998;BME280;64685;48.762;44.822;2023-05-07T20:07:30;101773.19;;;11.98;66.10
75998;BME280;64685;48.762;44.822;2023-05-07T20:12:33;101776.00;;;11.98;65.84
75998;BME280;64685;48.762;44.822;2023-05-07T20:17:36;101770.56;;;11.88;65.55
75998;BME280;64685;48.762;44.822;2023-05-07T20:22:40;101775.03;;;11.89;65.77
75998;BME280;64685;48.762;44.822;2023-05-07T20:27:42;101770.72;;;11.78;65.08
75998;BME280;64685;48.762;44.822;2023-05-07T20:32:45;101778.63;;;11.76;65.46
75998;BME280;64685;48.762;44.822;2023-05-07T20:37:48;101780.91;;;11.74;65.19
75998;BME280;64685;48.762;44.822;2023-05-07T20:42:50;101782.72;;;11.65;65.71
75998;BME280;64685;48.762;44.822;2023-05-07T20:47:53;101772.16;;;11.62;65.80
75998;BME280;64685;48.762;44.822;2023-05-07T20:52:55;101771.00;;;11.63;65.65
75998;BME280;64685;48.762;44.822;2023-05-07T20:57:58;101783.00;;;11.64;65.48
75998;BME280;64685;48.762;44.822;2023-05-07T21:03:00;101768.72;;;11.65;65.17
75998;BME280;64685;48.762;44.822;2023-05-07T21:08:03;101774.03;;;11.67;64.42
75998;BME280;64685;48.762;44.822;2023-05-07T21:13:06;101783.78;;;11.69;64.26
75998;BME280;64685;48.762;44.822;2023-05-07T21:18:09;101781.41;;;11.76;64.77
75998;BME280;64685;48.762;44.822;2023-05-07T21:23:12;101782.53;;;11.57;64.86
75998;BME280;64685;48.762;44.822;2023-05-07T21:28:15;101785.34;;;11.57;65.39
75998;BME280;64685;48.762;44.822;2023-05-07T21:33:19;101789.13;;;11.47;64.96
75998;BME280;64685;48.762;44.822;2023-05-07T21:38:21;101786.63;;;11.46;64.93
75998;BME280;64685;48.762;44.822;2023-05-07T21:43:24;101789.41;;;11.46;64.78
75998;BME280;64685;48.762;44.822;2023-05-07T21:48:26;101789.34;;;11.51;64.42
75998;BME280;64685;48.762;44.822;2023-05-07T21:53:29;101782.59;;;11.52;63.96
75998;BME280;64685;48.762;44.822;2023-05-07T21:58:32;101775.72;;;11.44;64.20
75998;BME280;64685;48.762;44.822;2023-05-07T22:03:35;101777.88;;;11.52;64.10
75998;BME280;64685;48.762;44.822;2023-05-07T22:08:37;101773.13;;;11.34;64.49
75998;BME280;64685;48.762;44.822;2023-05-07T22:13:40;101768.09;;;11.31;63.92
75998;BME280;64685;48.762;44.822;2023-05-07T22:18:42;101757.84;;;11.27;65.07
75998;BME280;64685;48.762;44.822;2023-05-07T22:23:45;101766.00;;;11.23;64.90
75998;BME280;64685;48.762;44.822;2023-05-07T22:28:47;101771.03;;;11.21;65.03
75998;BME280;64685;48.762;44.822;2023-05-07T22:33:50;101787.22;;;11.24;65.88
75998;BME280;64685;48.762;44.822;2023-05-07T22:38:52;101798.41;;;11.24;65.31
75998;BME280;64685;48.762;44.822;2023-05-07T22:43:55;101795.31;;;11.26;64.90
75998;BME280;64685;48.762;44.822;2023-05-07T22:48:57;101795.56;;;11.29;64.66
75998;BME280;64685;48.762;44.822;2023-05-07T22:54:00;101790.78;;;11.30;64.59
75998;BME280;64685;48.762;44.822;2023-05-07T22:59:02;101796.44;;;11.25;64.91
75998;BME280;64685;48.762;44.822;2023-05-07T23:04:05;101803.03;;;11.34;63.57
75998;BME280;64685;48.762;44.822;2023-05-07T23:09:08;101800.53;;;11.32;63.80
75998;BME280;64685;48.762;44.822;2023-05-07T23:14:11;101804.75;;;11.30;63.70
75998;BME280;64685;48.762;44.822;2023-05-07T23:19:13;101785.09;;;11.16;63.47
75998;BME280;64685;48.762;44.822;2023-05-07T23:24:16;101783.81;;;11.09;63.51
75998;BME280;64685;48.762;44.822;2023-05-07T23:29:20;101785.63;;;11.00;64.41
75998;BME280;64685;48.762;44.822;2023-05-07T23:34:22;101785.91;;;10.98;65.07
75998;BME280;64685;48.762;44.822;2023-05-07T23:39:25;101775.47;;;10.85;64.79
75998;BME280;64685;48.762;44.822;2023-05-07T23:44:27;101785.06;;;10.79;65.27
75998;BME280;64685;48.762;44.822;2023-05-07T23:49:30;101787.84;;;10.79;65.51
75998;BME280;64685;48.762;44.822;2023-05-07T23:54:32;101779.97;;;10.81;65.43
75998;BME280;64685;48.762;44.822;2023-05-07T23:59:35;101787.31;;;10.77;65.59
